Time;durP1;ratioP1;P1;durP2;ratioP2;P2;SDS_P1;SDS_P2;PMS_P1;PMS_P2;Temp;Humidity;BMP_temperature;BMP_pressure;BME280_temperature;BME280_humidity;BME280_pressure;Samples;Min_cycle;Max_cycle;Signal;HPM_P1;HPM_P2
2023/05/21 00:02:18;;;;;;;;;;;20.60;65.60;;;;;;5109640;27;43030;-88
2023/05/21 00:05:01;;;;;;;;;;;20.60;65.10;;;;;;5080139;27;43733;-87
2023/05/21 00:07:27;;;;;;;;;;;20.60;65.60;;;;;;5069969;27;42990;-87
2023/05/21 00:09:53;;;;;;;;;;;20.40;65.40;;;;;;5106987;27;43569;-87
2023/05/21 00:12:18;;;;;;;;;;;20.60;64.90;;;;;;5086508;27;43077;-80
2023/05/21 00:14:44;;;;;;;;;;;20.60;65.70;;;;;;5085493;27;43217;-87
2023/05/21 00:17:09;;;;;;;;;;;20.30;65.40;;;;;;5096182;27;42992;-88
2023/05/21 00:19:35;;;;;;;;;;;20.70;65.70;;;;;;5087796;27;43273;-88
2023/05/21 00:22:03;;;;;;;;;;;20.60;65.60;;;;;;5084910;27;43124;-83
2023/05/21 00:24:28;;;;;;;;;;;20.70;65.30;;;;;;5098026;27;42878;-90
2023/05/21 00:26:55;;;;;;;;;;;20.70;65.60;;;;;;5100989;27;42967;-89
2023/05/21 00:29:21;;;;;;;;;;;20.70;65.80;;;;;;5093309;27;43369;-86
2023/05/21 00:31:46;;;;;;;;;;;20.70;65.90;;;;;;5095656;27;43134;-91
2023/05/21 00:34:12;;;;;;;;;;;20.70;65.70;;;;;;5085815;27;43244;-89
2023/05/21 00:36:39;;;;;;;;;;;20.60;65.70;;;;;;5086467;27;42912;-86
2023/05/21 00:39:05;;;;;;;;;;;20.70;65.70;;;;;;5085775;27;43394;-91
2023/05/21 00:41:30;;;;;;;;;;;20.70;65.50;;;;;;5081578;27;43045;-91
2023/05/21 00:43:59;;;;;;;;;;;20.70;66.20;;;;;;5096136;27;43740;-90
2023/05/21 00:46:27;;;;;;;;;;;20.70;65.70;;;;;;5102491;27;42944;-91
2023/05/21 00:48:53;;;;;;;;;;;20.70;65.80;;;;;;5093556;27;42929;-85
2023/05/21 00:51:20;;;;;;;;;;;20.70;65.60;;;;;;5087853;27;42987;-87
2023/05/21 00:53:48;;;;;;;;;;;20.60;65.90;;;;;;5089905;27;43719;-89
2023/05/21 00:56:13;;;;;;;;;;;20.70;65.80;;;;;;5093020;27;42972;-89
2023/05/21 00:58:39;;;;;;;;;;;20.70;65.70;;;;;;5087400;27;43814;-88
2023/05/21 01:01:05;;;;;;;;;;;20.70;65.80;;;;;;5119053;27;43045;-87
2023/05/21 01:03:37;;;;;;;;;;;20.70;65.80;;;;;;5093562;27;43466;-88
2023/05/21 01:06:04;;;;;;;;;;;20.70;65.90;;;;;;5105189;27;43007;-87
2023/05/21 01:08:30;;;;;;;;;;;20.70;66.00;;;;;;5088392;27;43505;-87
2023/05/21 01:10:57;;;;;;;;;;;20.70;66.00;;;;;;5092876;27;42939;-85
2023/05/21 01:13:23;;;;;;;;;;;20.70;66.20;;;;;;5091900;27;42964;-86
2023/05/21 01:15:49;;;;;;;;;;;20.70;66.10;;;;;;5096191;27;43126;-86
2023/05/21 01:18:14;;;;;;;;;;;20.80;66.20;;;;;;5086144;27;43447;-85
2023/05/21 01:20:41;;;;;;;;;;;20.70;66.30;;;;;;5086433;27;43883;-85
2023/05/21 01:23:07;;;;;;;;;;;20.70;66.40;;;;;;5092545;27;43398;-85
2023/05/21 01:25:33;;;;;;;;;;;20.70;66.30;;;;;;5089022;27;43020;-84
2023/05/21 01:27:59;;;;;;;;;;;20.80;66.30;;;;;;5086840;27;42968;-86
2023/05/21 01:30:25;;;;;;;;;;;20.70;66.30;;;;;;5098026;27;43073;-77
2023/05/21 01:33:02;;;;;;;;;;;20.70;66.20;;;;;;5091921;27;43428;-77
2023/05/21 01:35:34;;;;;;;;;;;20.70;65.70;;;;;;5083462;27;43042;-75
2023/05/21 01:38:12;;;;;;;;;;;20.70;65.80;;;;;;5097869;27;44347;-76
2023/05/21 01:40:53;;;;;;;;;;;20.70;65.80;;;;;;5093676;27;43254;-77
2023/05/21 01:43:19;;;;;;;;;;;21.30;66.10;;;;;;5091998;27;43553;-76
2023/05/21 01:45:46;;;;;;;;;;;20.70;66.20;;;;;;5092766;27;43141;-75
2023/05/21 01:48:12;;;;;;;;;;;20.80;66.40;;;;;;5096555;27;43735;-75
2023/05/21 01:50:39;;;;;;;;;;;20.70;66.30;;;;;;5091116;27;43084;-76
2023/05/21 01:53:04;;;;;;;;;;;20.70;66.30;;;;;;5092833;27;44598;-76
2023/05/21 01:55:30;;;;;;;;;;;20.70;66.20;;;;;;5092908;27;43159;-76
2023/05/21 01:57:56;;;;;;;;;;;20.80;66.20;;;;;;5087059;27;43884;-75
2023/05/21 02:00:23;;;;;;;;;;;20.70;66.00;;;;;;5102331;27;43191;-76
2023/05/21 02:02:49;;;;;;;;;;;20.70;66.20;;;;;;5123601;27;43079;-86
2023/05/21 02:05:14;;;;;;;;;;;20.80;67.10;;;;;;5116596;27;43928;-84
2023/05/21 02:07:40;;;;;;;;;;;20.70;66.10;;;;;;5093859;27;43560;-84
2023/05/21 02:10:06;;;;;;;;;;;20.80;66.20;;;;;;5114863;27;43069;-87
2023/05/21 02:12:32;;;;;;;;;;;20.80;66.00;;;;;;5081020;27;45590;-87
2023/05/21 02:14:57;;;;;;;;;;;21.70;66.90;;;;;;5105901;27;43006;-88
2023/05/21 02:17:23;;;;;;;;;;;20.70;66.20;;;;;;5101839;27;43895;-88
2023/05/21 02:19:49;;;;;;;;;;;20.80;66.10;;;;;;5102853;27;43007;-89
2023/05/21 02:22:14;;;;;;;;;;;20.70;66.10;;;;;;5092547;27;43929;-88
2023/05/21 02:24:40;;;;;;;;;;;20.70;66.20;;;;;;5095584;27;42825;-84
2023/05/21 02:27:05;;;;;;;;;;;20.70;66.20;;;;;;5089813;27;42956;-85
2023/05/21 02:29:31;;;;;;;;;;;20.70;66.10;;;;;;5095330;27;43309;-86
2023/05/21 02:31:57;;;;;;;;;;;20.70;66.20;;;;;;5087214;27;43002;-85
2023/05/21 02:34:23;;;;;;;;;;;20.70;66.30;;;;;;5094342;27;42835;-84
2023/05/21 02:36:51;;;;;;;;;;;20.80;66.40;;;;;;5093423;27;42918;-86
2023/05/21 02:39:17;;;;;;;;;;;20.90;66.20;;;;;;5092223;27;43070;-84
2023/05/21 02:41:44;;;;;;;;;;;20.70;66.10;;;;;;5093335;27;42976;-85
2023/05/21 02:44:09;;;;;;;;;;;20.70;66.00;;;;;;5090020;27;43582;-84
2023/05/21 02:46:35;;;;;;;;;;;20.70;66.30;;;;;;5098851;27;42799;-85
2023/05/21 02:49:00;;;;;;;;;;;20.70;66.20;;;;;;5096313;27;43110;-85
2023/05/21 02:51:26;;;;;;;;;;;20.80;66.20;;;;;;5088726;27;42928;-85
2023/05/21 02:53:51;;;;;;;;;;;20.70;66.10;;;;;;5095836;27;42896;-84
2023/05/21 02:56:17;;;;;;;;;;;20.70;66.50;;;;;;5093146;27;43726;-85
2023/05/21 02:58:43;;;;;;;;;;;20.80;66.10;;;;;;5097476;27;43144;-86
2023/05/21 03:01:08;;;;;;;;;;;20.70;66.00;;;;;;5102176;27;43538;-82
2023/05/21 03:03:34;;;;;;;;;;;20.70;66.10;;;;;;5068951;27;43266;-84
2023/05/21 03:06:00;;;;;;;;;;;20.70;65.40;;;;;;5087261;27;44128;-84
2023/05/21 03:08:25;;;;;;;;;;;20.70;66.20;;;;;;5090418;27;43100;-85
2023/05/21 03:10:51;;;;;;;;;;;20.80;66.00;;;;;;5110192;27;43016;-85
2023/05/21 03:13:16;;;;;;;;;;;20.80;66.00;;;;;;5094980;27;43017;-84
2023/05/21 03:15:42;;;;;;;;;;;20.80;65.90;;;;;;5088273;27;43036;-85
2023/05/21 03:18:08;;;;;;;;;;;20.70;65.80;;;;;;5085220;27;43082;-86
2023/05/21 03:20:34;;;;;;;;;;;20.70;65.90;;;;;;5094803;27;42932;-86
2023/05/21 03:23:03;;;;;;;;;;;20.70;65.80;;;;;;5089272;27;43355;-86
2023/05/21 03:25:28;;;;;;;;;;;21.00;65.90;;;;;;5094381;27;44620;-85
2023/05/21 03:27:54;;;;;;;;;;;20.70;65.90;;;;;;5088569;27;43119;-85
2023/05/21 03:30:19;;;;;;;;;;;20.70;65.80;;;;;;5094882;27;43016;-86
2023/05/21 03:32:45;;;;;;;;;;;20.70;66.20;;;;;;5095008;27;42877;-85
2023/05/21 03:35:11;;;;;;;;;;;20.70;65.60;;;;;;5095643;27;43021;-85
2023/05/21 03:37:36;;;;;;;;;;;20.70;65.90;;;;;;5100702;27;42930;-85
2023/05/21 03:40:03;;;;;;;;;;;20.70;66.00;;;;;;5095850;27;43727;-85
2023/05/21 03:42:28;;;;;;;;;;;20.70;65.50;;;;;;5088774;27;43140;-86
2023/05/21 03:44:54;;;;;;;;;;;20.70;65.70;;;;;;5093079;27;43257;-85
2023/05/21 03:47:20;;;;;;;;;;;20.70;65.90;;;;;;5090547;27;43238;-85
2023/05/21 03:49:45;;;;;;;;;;;20.70;65.80;;;;;;5089769;27;43048;-86
2023/05/21 03:52:11;;;;;;;;;;;20.80;65.10;;;;;;5087892;27;43111;-85
2023/05/21 03:54:36;;;;;;;;;;;20.70;65.60;;;;;;5089966;27;43968;-86
2023/05/21 03:57:02;;;;;;;;;;;20.60;65.70;;;;;;5092200;27;42843;-90
2023/05/21 03:59:27;;;;;;;;;;;20.80;65.90;;;;;;5097390;27;42962;-76
2023/05/21 04:01:53;;;;;;;;;;;20.90;65.80;;;;;;5089534;27;43326;-76
2023/05/21 04:04:18;;;;;;;;;;;20.70;65.70;;;;;;5089651;27;43574;-76
2023/05/21 04:06:44;;;;;;;;;;;20.70;65.50;;;;;;5089905;27;42955;-75
2023/05/21 04:09:09;;;;;;;;;;;20.80;65.70;;;;;;5100037;27;43103;-75
2023/05/21 04:11:35;;;;;;;;;;;20.70;65.60;;;;;;5098442;27;43007;-76
2023/05/21 04:14:01;;;;;;;;;;;20.80;65.60;;;;;;5095312;27;43398;-83
2023/05/21 04:16:27;;;;;;;;;;;20.80;65.70;;;;;;5087870;27;44127;-76
2023/05/21 04:18:54;;;;;;;;;;;20.80;65.60;;;;;;5100874;27;42965;-80
2023/05/21 04:21:20;;;;;;;;;;;20.60;65.40;;;;;;5103915;27;42840;-84
2023/05/21 04:23:46;;;;;;;;;;;20.70;65.60;;;;;;5103718;27;43421;-75
2023/05/21 04:26:11;;;;;;;;;;;20.70;64.80;;;;;;5102226;27;43021;-82
2023/05/21 04:28:40;;;;;;;;;;;20.50;65.30;;;;;;5084625;27;43446;-75
2023/05/21 04:31:07;;;;;;;;;;;20.70;65.40;;;;;;5084330;27;43128;-77
2023/05/21 04:33:34;;;;;;;;;;;20.80;65.40;;;;;;5086366;27;43017;-76
2023/05/21 04:36:00;;;;;;;;;;;20.70;65.40;;;;;;5099781;27;43108;-75
2023/05/21 04:38:26;;;;;;;;;;;20.70;65.40;;;;;;5096107;27;43052;-79
2023/05/21 04:40:52;;;;;;;;;;;20.70;65.40;;;;;;5097058;27;42995;-83
2023/05/21 04:43:24;;;;;;;;;;;20.80;65.60;;;;;;5099221;27;43425;-75
2023/05/21 04:45:50;;;;;;;;;;;20.80;65.50;;;;;;5087507;27;43002;-76
2023/05/21 04:48:16;;;;;;;;;;;20.70;65.30;;;;;;5092264;27;43589;-74
2023/05/21 04:50:42;;;;;;;;;;;20.80;65.40;;;;;;5082907;27;43279;-76
2023/05/21 04:53:07;;;;;;;;;;;20.70;65.40;;;;;;5093193;27;43550;-75
2023/05/21 04:55:38;;;;;;;;;;;20.80;64.80;;;;;;5071636;27;43340;-77
2023/05/21 04:58:06;;;;;;;;;;;19.70;64.70;;;;;;5103387;27;43195;-75
2023/05/21 05:00:32;;;;;;;;;;;20.80;65.40;;;;;;5084740;27;43459;-74
2023/05/21 05:02:58;;;;;;;;;;;20.70;65.20;;;;;;5086676;27;43378;-76
2023/05/21 05:05:24;;;;;;;;;;;20.80;65.30;;;;;;5094064;27;43017;-74
2023/05/21 05:07:50;;;;;;;;;;;20.80;65.40;;;;;;5074727;27;45541;-74
2023/05/21 05:10:15;;;;;;;;;;;20.70;65.40;;;;;;5090919;27;43583;-75
2023/05/21 05:12:41;;;;;;;;;;;20.80;65.40;;;;;;5088169;27;43112;-76
2023/05/21 05:15:07;;;;;;;;;;;20.70;65.30;;;;;;5070666;27;42997;-74
2023/05/21 05:17:33;;;;;;;;;;;20.80;64.90;;;;;;5092585;27;42954;-75
2023/05/21 05:19:58;;;;;;;;;;;20.80;65.20;;;;;;5099790;27;43132;-75
2023/05/21 05:22:24;;;;;;;;;;;20.60;65.10;;;;;;5097210;27;43571;-79
2023/05/21 05:24:49;;;;;;;;;;;20.60;65.20;;;;;;5082908;27;43012;-74
2023/05/21 05:27:16;;;;;;;;;;;20.70;65.00;;;;;;5090980;27;43345;-74
2023/05/21 05:29:42;;;;;;;;;;;20.70;65.10;;;;;;5063766;28;42966;-75
2023/05/21 05:32:08;;;;;;;;;;;20.90;64.60;;;;;;5093146;27;43029;-78
2023/05/21 05:34:33;;;;;;;;;;;21.40;65.60;;;;;;5091712;27;42957;-75
2023/05/21 05:36:59;;;;;;;;;;;20.80;64.80;;;;;;5091302;27;42922;-75
2023/05/21 05:39:24;;;;;;;;;;;20.80;65.60;;;;;;5090376;27;42994;-76
2023/05/21 05:41:50;;;;;;;;;;;20.80;65.40;;;;;;5086776;27;42967;-77
2023/05/21 05:44:15;;;;;;;;;;;20.80;65.30;;;;;;5086976;27;42967;-76
2023/05/21 05:46:41;;;;;;;;;;;20.80;65.30;;;;;;5102652;27;43549;-74
2023/05/21 05:49:06;;;;;;;;;;;20.80;65.40;;;;;;5101962;27;43000;-76
2023/05/21 05:51:32;;;;;;;;;;;20.80;64.80;;;;;;5092411;27;43102;-83
2023/05/21 05:53:57;;;;;;;;;;;20.90;65.10;;;;;;5093642;27;43011;-79
2023/05/21 05:56:23;;;;;;;;;;;20.70;65.70;;;;;;5094070;27;43799;-76
2023/05/21 05:58:48;;;;;;;;;;;19.80;64.40;;;;;;5092944;27;43158;-76
2023/05/21 06:01:15;;;;;;;;;;;20.90;65.80;;;;;;5105260;27;43064;-76
2023/05/21 06:03:40;;;;;;;;;;;20.70;65.80;;;;;;5104992;27;42992;-79
2023/05/21 06:06:06;;;;;;;;;;;20.80;65.90;;;;;;5104543;27;42960;-81
2023/05/21 06:08:33;;;;;;;;;;;20.70;65.60;;;;;;5107783;27;42976;-81
2023/05/21 06:10:59;;;;;;;;;;;20.80;64.60;;;;;;5104408;27;43820;-79
2023/05/21 06:13:24;;;;;;;;;;;20.50;64.50;;;;;;5086822;27;42915;-80
2023/05/21 06:15:50;;;;;;;;;;;20.70;65.30;;;;;;5094451;27;43005;-80
2023/05/21 06:18:15;;;;;;;;;;;20.70;65.10;;;;;;5089775;27;43031;-77
2023/05/21 06:20:41;;;;;;;;;;;20.70;64.70;;;;;;5105165;27;43154;-79
2023/05/21 06:23:07;;;;;;;;;;;20.80;65.30;;;;;;5105408;27;43014;-76
2023/05/21 06:25:33;;;;;;;;;;;20.40;64.90;;;;;;5105329;27;42960;-81
2023/05/21 06:27:58;;;;;;;;;;;20.20;64.50;;;;;;5101140;27;42925;-79
2023/05/21 06:30:24;;;;;;;;;;;20.70;65.30;;;;;;5097134;27;43741;-75
2023/05/21 06:32:49;;;;;;;;;;;20.70;65.50;;;;;;5090995;27;43096;-77
2023/05/21 06:35:15;;;;;;;;;;;20.70;65.60;;;;;;5091453;27;43374;-80
2023/05/21 06:37:41;;;;;;;;;;;20.40;65.80;;;;;;5089344;27;42950;-80
2023/05/21 06:40:07;;;;;;;;;;;20.70;67.60;;;;;;5105674;27;42997;-80
2023/05/21 06:42:33;;;;;;;;;;;20.70;67.80;;;;;;5094955;27;42930;-76
2023/05/21 06:44:58;;;;;;;;;;;20.80;67.50;;;;;;5085954;27;42982;-78
2023/05/21 06:47:24;;;;;;;;;;;20.70;67.80;;;;;;5091616;27;43085;-76
2023/05/21 06:49:49;;;;;;;;;;;20.70;68.30;;;;;;5098520;27;42899;-75
2023/05/21 06:52:15;;;;;;;;;;;20.60;67.80;;;;;;5097074;27;43270;-77
2023/05/21 06:54:41;;;;;;;;;;;20.60;67.60;;;;;;5093604;27;44554;-76
2023/05/21 06:57:06;;;;;;;;;;;20.50;67.60;;;;;;5090486;27;43308;-76
2023/05/21 06:59:32;;;;;;;;;;;20.70;66.70;;;;;;5096132;27;44004;-76
2023/05/21 07:01:58;;;;;;;;;;;20.70;66.90;;;;;;5091855;27;42938;-78
2023/05/21 07:04:23;;;;;;;;;;;20.80;68.10;;;;;;5102181;27;43739;-76
2023/05/21 07:06:51;;;;;;;;;;;20.60;67.50;;;;;;5101901;27;43028;-77
2023/05/21 07:09:17;;;;;;;;;;;20.80;68.00;;;;;;5107785;27;43335;-77
2023/05/21 07:11:43;;;;;;;;;;;20.80;68.10;;;;;;5100948;27;43021;-77
2023/05/21 07:14:08;;;;;;;;;;;20.80;67.90;;;;;;5101686;27;43480;-77
2023/05/21 07:16:34;;;;;;;;;;;20.90;67.60;;;;;;5091804;27;42924;-76
2023/05/21 07:18:59;;;;;;;;;;;20.80;67.70;;;;;;5092943;27;43547;-76
2023/05/21 07:21:25;;;;;;;;;;;20.70;67.60;;;;;;5085551;27;42964;-77
2023/05/21 07:23:50;;;;;;;;;;;20.60;68.20;;;;;;5094487;27;43446;-76
2023/05/21 07:26:16;;;;;;;;;;;20.90;68.10;;;;;;5096075;27;43964;-78
2023/05/21 07:28:42;;;;;;;;;;;20.90;67.90;;;;;;5098680;27;43484;-78
2023/05/21 07:31:07;;;;;;;;;;;20.90;68.30;;;;;;5077422;27;42927;-76
2023/05/21 07:33:33;;;;;;;;;;;20.90;68.00;;;;;;5092733;27;43120;-76
2023/05/21 07:35:58;;;;;;;;;;;21.00;68.50;;;;;;5091054;27;43079;-76
2023/05/21 07:38:25;;;;;;;;;;;20.70;67.70;;;;;;5090208;27;43936;-80
2023/05/21 07:40:50;;;;;;;;;;;20.90;67.90;;;;;;5101119;27;43114;-77
2023/05/21 07:43:16;;;;;;;;;;;20.90;67.20;;;;;;5094362;27;44142;-77
2023/05/21 07:45:41;;;;;;;;;;;20.80;65.50;;;;;;5073045;27;43073;-77
2023/05/21 07:48:07;;;;;;;;;;;20.80;65.00;;;;;;5105310;27;43929;-77
2023/05/21 07:50:32;;;;;;;;;;;20.80;64.50;;;;;;5099480;27;43084;-78
2023/05/21 07:52:58;;;;;;;;;;;20.80;64.50;;;;;;5095672;27;43636;-79
2023/05/21 07:55:23;;;;;;;;;;;20.80;64.10;;;;;;5097568;27;42969;-77
2023/05/21 07:57:51;;;;;;;;;;;20.80;64.00;;;;;;5086431;27;43114;-78
2023/05/21 08:00:17;;;;;;;;;;;20.80;64.50;;;;;;5090739;27;43071;-78
2023/05/21 08:02:43;;;;;;;;;;;20.80;63.60;;;;;;5084283;27;43193;-77
2023/05/21 08:05:09;;;;;;;;;;;20.80;63.20;;;;;;5090151;27;43308;-77
2023/05/21 08:07:35;;;;;;;;;;;20.70;62.90;;;;;;5087428;27;43601;-75
2023/05/21 08:10:00;;;;;;;;;;;20.80;61.60;;;;;;5092569;27;43110;-78
2023/05/21 08:12:26;;;;;;;;;;;20.80;61.60;;;;;;5102648;27;43810;-79
2023/05/21 08:14:51;;;;;;;;;;;20.70;61.50;;;;;;5094641;27;42958;-79
2023/05/21 08:17:17;;;;;;;;;;;20.70;62.10;;;;;;5092408;27;44032;-78
2023/05/21 08:19:42;;;;;;;;;;;20.70;61.60;;;;;;5089150;27;43033;-78
2023/05/21 08:22:08;;;;;;;;;;;20.60;59.70;;;;;;5073993;27;44611;-77
2023/05/21 08:24:34;;;;;;;;;;;20.70;60.60;;;;;;5095338;27;42968;-76
2023/05/21 08:27:00;;;;;;;;;;;20.60;59.80;;;;;;5071349;27;44248;-78
2023/05/21 08:29:25;;;;;;;;;;;20.80;60.70;;;;;;5100139;27;43041;-76
2023/05/21 08:31:51;;;;;;;;;;;20.70;60.50;;;;;;5085812;27;43614;-79
2023/05/21 08:34:17;;;;;;;;;;;20.80;59.60;;;;;;5100800;27;43954;-80
2023/05/21 08:36:44;;;;;;;;;;;20.80;60.00;;;;;;5100719;27;43819;-87
2023/05/21 08:39:11;;;;;;;;;;;20.70;60.20;;;;;;5077479;27;43136;-85
2023/05/21 08:41:37;;;;;;;;;;;20.80;59.50;;;;;;5096288;27;43082;-83
2023/05/21 08:44:04;;;;;;;;;;;20.70;59.40;;;;;;5099650;27;42893;-78
2023/05/21 08:46:34;;;;;;;;;;;20.70;59.60;;;;;;5088946;27;43396;-81
2023/05/21 08:49:01;;;;;;;;;;;20.70;59.00;;;;;;5094550;27;42937;-87
2023/05/21 08:51:27;;;;;;;;;;;20.60;59.10;;;;;;5094323;27;43132;-83
2023/05/21 08:53:54;;;;;;;;;;;20.80;59.30;;;;;;5085533;27;42923;-80
2023/05/21 08:56:20;;;;;;;;;;;20.70;58.40;;;;;;5065655;28;44109;-84
2023/05/21 08:58:45;;;;;;;;;;;20.70;58.90;;;;;;5091267;27;43016;-79
2023/05/21 09:01:11;;;;;;;;;;;20.70;58.10;;;;;;5103398;27;43031;-87
2023/05/21 09:03:39;;;;;;;;;;;20.70;58.30;;;;;;5092954;27;43120;-78
2023/05/21 09:06:05;;;;;;;;;;;20.70;57.60;;;;;;5097177;27;43045;-83
2023/05/21 09:08:33;;;;;;;;;;;20.70;57.90;;;;;;5103994;27;42864;-77
2023/05/21 09:11:00;;;;;;;;;;;20.70;57.60;;;;;;5073816;27;44542;-77
2023/05/21 09:13:26;;;;;;;;;;;20.60;57.20;;;;;;5092967;27;43164;-77
2023/05/21 09:15:51;;;;;;;;;;;20.80;57.10;;;;;;5101239;27;43553;-78
2023/05/21 09:18:17;;;;;;;;;;;20.60;57.20;;;;;;5097707;27;43900;-79
2023/05/21 09:20:43;;;;;;;;;;;20.70;57.00;;;;;;5098367;27;43106;-84
2023/05/21 09:23:15;;;;;;;;;;;20.70;56.50;;;;;;5102588;27;44226;-80
2023/05/21 09:25:43;;;;;;;;;;;20.70;57.10;;;;;;5104868;27;43478;-80
2023/05/21 09:28:23;;;;;;;;;;;20.70;57.70;;;;;;5097534;27;43120;-76
2023/05/21 09:30:52;;;;;;;;;;;21.70;57.40;;;;;;5097841;27;43102;-78
2023/05/21 09:33:25;;;;;;;;;;;20.70;56.60;;;;;;5077343;28;42918;-79
2023/05/21 09:35:51;;;;;;;;;;;20.70;56.10;;;;;;5094161;27;43815;-79
2023/05/21 09:38:16;;;;;;;;;;;20.70;54.90;;;;;;5103772;27;43132;-79
2023/05/21 09:40:42;;;;;;;;;;;20.70;56.00;;;;;;5095969;27;44047;-79
2023/05/21 09:43:12;;;;;;;;;;;20.80;55.90;;;;;;5098473;27;43235;-78
2023/05/21 09:45:38;;;;;;;;;;;20.80;55.80;;;;;;5093749;27;43034;-80
2023/05/21 09:48:03;;;;;;;;;;;20.80;55.40;;;;;;5094716;27;43024;-79
2023/05/21 09:50:30;;;;;;;;;;;20.80;55.30;;;;;;5091676;27;42927;-80
2023/05/21 09:52:57;;;;;;;;;;;20.70;54.00;;;;;;5103747;27;43045;-78
2023/05/21 09:55:23;;;;;;;;;;;20.90;53.10;;;;;;5099691;27;43013;-84
2023/05/21 09:57:48;;;;;;;;;;;20.80;53.00;;;;;;5100506;27;42907;-81
2023/05/21 10:00:21;;;;;;;;;;;20.80;54.00;;;;;;5096148;27;43447;-78
2023/05/21 10:02:47;;;;;;;;;;;20.90;52.50;;;;;;5093248;27;43674;-80
2023/05/21 10:05:13;;;;;;;;;;;20.90;53.20;;;;;;5096860;27;43335;-81
2023/05/21 10:07:41;;;;;;;;;;;20.90;53.40;;;;;;5102346;27;43846;-81
2023/05/21 10:10:08;;;;;;;;;;;20.90;53.00;;;;;;5100514;27;44558;-79
2023/05/21 10:12:34;;;;;;;;;;;20.90;53.00;;;;;;5098804;27;44708;-79
2023/05/21 10:15:02;;;;;;;;;;;20.90;53.20;;;;;;5106620;27;43500;-78
2023/05/21 10:17:28;;;;;;;;;;;20.80;52.40;;;;;;5099067;27;43118;-80
2023/05/21 10:19:55;;;;;;;;;;;20.90;53.00;;;;;;5091994;27;43153;-79
2023/05/21 10:22:21;;;;;;;;;;;20.90;53.20;;;;;;5091794;27;43071;-78
2023/05/21 10:24:47;;;;;;;;;;;20.90;52.90;;;;;;5092319;27;42921;-83
2023/05/21 10:27:13;;;;;;;;;;;21.00;52.90;;;;;;5096467;27;43224;-79
2023/05/21 10:29:40;;;;;;;;;;;21.00;52.30;;;;;;5098370;27;42985;-82
2023/05/21 10:32:06;;;;;;;;;;;20.90;52.10;;;;;;5075627;27;43559;-81
2023/05/21 10:37:35;;;;;;;;;;;21.00;52.30;;;;;;5098255;27;43007;-80
2023/05/21 10:40:01;;;;;;;;;;;21.00;51.70;;;;;;5100588;27;43564;-79
2023/05/21 10:42:29;;;;;;;;;;;21.00;51.20;;;;;;5091814;27;42978;-80
2023/05/21 10:44:54;;;;;;;;;;;21.00;50.90;;;;;;5090631;27;42964;-81
2023/05/21 10:47:23;;;;;;;;;;;21.00;50.50;;;;;;5085533;27;42983;-80
2023/05/21 10:49:49;;;;;;;;;;;21.00;50.40;;;;;;5095423;27;42870;-83
2023/05/21 10:52:14;;;;;;;;;;;21.00;50.90;;;;;;5097821;27;43071;-81
2023/05/21 10:54:40;;;;;;;;;;;21.10;51.40;;;;;;5089281;27;43149;-78
2023/05/21 10:57:24;;;;;;;;;;;21.10;50.90;;;;;;5092347;27;42971;-83
2023/05/21 10:59:49;;;;;;;;;;;21.30;50.60;;;;;;5095271;27;43181;-81
2023/05/21 11:02:16;;;;;;;;;;;21.30;50.70;;;;;;5095763;27;42916;-82
2023/05/21 11:04:47;;;;;;;;;;;21.10;50.50;;;;;;5090073;27;44268;-79
2023/05/21 11:07:13;;;;;;;;;;;21.10;50.40;;;;;;5089315;27;42989;-77
2023/05/21 11:09:39;;;;;;;;;;;21.10;51.30;;;;;;5093295;27;44070;-77
2023/05/21 11:12:06;;;;;;;;;;;21.10;51.70;;;;;;5101906;27;42921;-78
2023/05/21 11:14:55;;;;;;;;;;;21.20;51.90;;;;;;5089100;27;43711;-79
2023/05/21 11:17:43;;;;;;;;;;;21.20;51.60;;;;;;5102059;27;43048;-81
2023/05/21 11:20:10;;;;;;;;;;;21.20;52.10;;;;;;5096325;27;43061;-80
2023/05/21 11:22:36;;;;;;;;;;;21.20;52.40;;;;;;5080527;27;43079;-79
2023/05/21 11:25:02;;;;;;;;;;;21.40;52.50;;;;;;5090722;27;43025;-79
2023/05/21 11:27:39;;;;;;;;;;;21.30;52.50;;;;;;5072694;28;59909;-78
2023/05/21 11:30:06;;;;;;;;;;;21.30;52.20;;;;;;5092291;27;42860;-76
2023/05/21 11:32:35;;;;;;;;;;;21.30;52.50;;;;;;5091325;27;43096;-79
2023/05/21 11:35:01;;;;;;;;;;;21.30;52.60;;;;;;5091065;27;43019;-81
2023/05/21 11:37:28;;;;;;;;;;;21.30;53.00;;;;;;5096193;27;42957;-78
2023/05/21 11:39:54;;;;;;;;;;;21.30;52.60;;;;;;5097016;27;43066;-78
2023/05/21 11:42:27;;;;;;;;;;;21.30;52.60;;;;;;5096000;27;43024;-78
2023/05/21 11:44:52;;;;;;;;;;;21.30;52.60;;;;;;5093038;27;43115;-78
2023/05/21 11:47:18;;;;;;;;;;;21.30;52.90;;;;;;5088645;27;42996;-78
2023/05/21 11:49:43;;;;;;;;;;;21.40;52.90;;;;;;5089454;27;43612;-79
2023/05/21 11:52:10;;;;;;;;;;;21.30;53.10;;;;;;5093533;27;42925;-77
2023/05/21 11:54:39;;;;;;;;;;;21.30;52.60;;;;;;5089412;27;43005;-77
2023/05/21 11:57:06;;;;;;;;;;;21.30;52.60;;;;;;5095998;27;43279;-78
2023/05/21 11:59:35;;;;;;;;;;;21.30;52.70;;;;;;5090872;27;43448;-78
2023/05/21 12:02:04;;;;;;;;;;;21.30;52.90;;;;;;5088181;27;43206;-77
2023/05/21 12:04:29;;;;;;;;;;;21.30;52.60;;;;;;5085719;27;43614;-77
2023/05/21 12:06:57;;;;;;;;;;;21.30;52.80;;;;;;5099149;27;43009;-75
2023/05/21 12:09:23;;;;;;;;;;;21.30;53.00;;;;;;5074162;27;44546;-75
2023/05/21 12:11:50;;;;;;;;;;;21.40;53.10;;;;;;5087205;27;43093;-76
2023/05/21 12:14:15;;;;;;;;;;;21.30;53.20;;;;;;5091425;27;45126;-82
2023/05/21 12:16:41;;;;;;;;;;;21.30;53.10;;;;;;5092923;27;43056;-75
2023/05/21 12:19:07;;;;;;;;;;;21.20;52.90;;;;;;5095437;27;43441;-76
2023/05/21 12:21:33;;;;;;;;;;;21.20;53.50;;;;;;5091747;27;43152;-79
2023/05/21 12:23:58;;;;;;;;;;;21.20;52.70;;;;;;5098790;27;43600;-78
2023/05/21 12:26:24;;;;;;;;;;;21.40;52.90;;;;;;5101217;27;42928;-74
2023/05/21 12:28:53;;;;;;;;;;;21.30;52.90;;;;;;5091016;27;43162;-76
2023/05/21 12:31:21;;;;;;;;;;;21.40;52.40;;;;;;5096809;27;43000;-76
2023/05/21 12:33:48;;;;;;;;;;;21.40;52.80;;;;;;5101522;27;43080;-76
2023/05/21 12:36:29;;;;;;;;;;;21.40;52.70;;;;;;5098506;27;42984;-77
2023/05/21 12:38:56;;;;;;;;;;;21.40;52.50;;;;;;5097224;27;43681;-75
2023/05/21 12:41:22;;;;;;;;;;;21.20;52.70;;;;;;5086121;27;43026;-76
2023/05/21 12:43:47;;;;;;;;;;;21.20;53.10;;;;;;5094101;27;43817;-76
2023/05/21 12:46:16;;;;;;;;;;;21.40;53.10;;;;;;5101003;27;43091;-76
2023/05/21 12:48:48;;;;;;;;;;;21.40;53.10;;;;;;5102124;27;43566;-75
2023/05/21 12:51:14;;;;;;;;;;;21.40;52.60;;;;;;5104333;27;42940;-76
2023/05/21 12:53:42;;;;;;;;;;;21.40;52.90;;;;;;5087901;27;43805;-78
2023/05/21 12:56:11;;;;;;;;;;;21.40;52.70;;;;;;5101260;27;42992;-75
2023/05/21 12:58:37;;;;;;;;;;;21.50;52.90;;;;;;5087592;27;43222;-76
2023/05/21 13:01:07;;;;;;;;;;;21.40;52.90;;;;;;5090650;27;42800;-76
2023/05/21 13:03:32;;;;;;;;;;;21.40;52.60;;;;;;5092008;27;44045;-76
2023/05/21 13:05:58;;;;;;;;;;;21.20;53.00;;;;;;5099095;27;43100;-78
2023/05/21 13:08:24;;;;;;;;;;;21.40;52.50;;;;;;5086173;27;44306;-76
2023/05/21 13:10:49;;;;;;;;;;;22.00;53.50;;;;;;5097882;27;42964;-75
2023/05/21 13:13:15;;;;;;;;;;;21.40;53.30;;;;;;5093531;27;42980;-79
2023/05/21 13:15:40;;;;;;;;;;;21.50;53.20;;;;;;5090054;27;42943;-77
2023/05/21 13:18:06;;;;;;;;;;;21.50;53.30;;;;;;5101385;27;42964;-76
2023/05/21 13:20:31;;;;;;;;;;;21.50;53.00;;;;;;5100529;27;42840;-77
2023/05/21 13:22:57;;;;;;;;;;;21.50;53.10;;;;;;5090779;27;43186;-77
2023/05/21 13:25:26;;;;;;;;;;;21.50;53.10;;;;;;5087451;27;42936;-76
2023/05/21 13:27:51;;;;;;;;;;;21.50;53.10;;;;;;5089370;27;44462;-76
2023/05/21 13:30:17;;;;;;;;;;;21.40;53.40;;;;;;5092392;27;43023;-75
2023/05/21 13:32:43;;;;;;;;;;;21.40;53.10;;;;;;5093455;27;43534;-77
2023/05/21 13:35:10;;;;;;;;;;;21.40;53.40;;;;;;5076678;27;43178;-77
2023/05/21 13:37:35;;;;;;;;;;;21.50;53.10;;;;;;5103375;27;43791;-75
2023/05/21 13:40:05;;;;;;;;;;;21.50;53.10;;;;;;5087832;27;42988;-77
2023/05/21 13:42:30;;;;;;;;;;;21.50;52.80;;;;;;5089651;27;42942;-77
2023/05/21 13:44:56;;;;;;;;;;;21.50;53.20;;;;;;5102573;27;42986;-78
2023/05/21 13:47:22;;;;;;;;;;;21.50;53.10;;;;;;5101031;27;43658;-76
2023/05/21 13:49:47;;;;;;;;;;;21.50;53.30;;;;;;5088596;27;42990;-77
2023/05/21 13:52:13;;;;;;;;;;;21.50;53.30;;;;;;5089070;27;43017;-75
2023/05/21 13:54:39;;;;;;;;;;;21.50;53.20;;;;;;5101175;27;43010;-76
2023/05/21 13:57:05;;;;;;;;;;;21.50;53.20;;;;;;5072970;27;43035;-74
2023/05/21 13:59:30;;;;;;;;;;;21.50;53.20;;;;;;5095775;27;43231;-78
2023/05/21 14:01:56;;;;;;;;;;;21.50;53.00;;;;;;5085111;27;43570;-76
2023/05/21 14:04:22;;;;;;;;;;;21.50;53.10;;;;;;5099405;27;43042;-81
2023/05/21 14:06:47;;;;;;;;;;;21.50;53.10;;;;;;5086303;27;43802;-79
2023/05/21 14:09:13;;;;;;;;;;;21.50;53.40;;;;;;5103306;27;43081;-78
2023/05/21 14:11:39;;;;;;;;;;;21.50;53.20;;;;;;5085364;27;43936;-79
2023/05/21 14:14:05;;;;;;;;;;;21.50;52.90;;;;;;5095500;27;42942;-77
2023/05/21 14:16:30;;;;;;;;;;;21.50;53.00;;;;;;5094409;27;43248;-79